sensor_id;sensor_type;location;lat;lon;timestamp;pressure;altitude;pressure_sealevel;temperature;humidity
50852;BME280;43953;45.508;-122.806;2023-04-28T00:00:07;100913.56;;;29.22;29.32
50852;BME280;43953;45.508;-122.806;2023-04-28T00:00:39;100911.66;;;29.22;29.49
50852;BME280;43953;45.508;-122.806;2023-04-28T00:01:11;100905.75;;;29.24;29.28
50852;BME280;43953;45.508;-122.806;2023-04-28T00:01:43;100900.22;;;29.24;29.14
50852;BME280;43953;45.508;-122.806;2023-04-28T00:02:15;100902.16;;;29.23;28.78
50852;BME280;43953;45.508;-122.806;2023-04-28T00:02:47;100903.31;;;29.22;28.41
50852;BME280;43953;45.508;-122.806;2023-04-28T00:03:19;100907.56;;;29.20;28.54
50852;BME280;43953;45.508;-122.806;2023-04-28T00:03:50;100899.91;;;29.17;28.76
50852;BME280;43953;45.508;-122.806;2023-04-28T00:04:23;100908.22;;;29.17;28.75
50852;BME280;43953;45.508;-122.806;2023-04-28T00:04:55;100904.97;;;29.15;28.60
50852;BME280;43953;45.508;-122.806;2023-04-28T00:05:28;100898.25;;;29.16;28.69
50852;BME280;43953;45.508;-122.806;2023-04-28T00:05:59;100902.19;;;29.15;28.70
50852;BME280;43953;45.508;-122.806;2023-04-28T00:06:31;100901.03;;;29.16;28.80
50852;BME280;43953;45.508;-122.806;2023-04-28T00:07:03;100901.03;;;29.16;28.98
50852;BME280;43953;45.508;-122.806;2023-04-28T00:07:35;100908.22;;;29.17;28.90
50852;BME280;43953;45.508;-122.806;2023-04-28T00:08:07;100901.53;;;29.18;28.80
50852;BME280;43953;45.508;-122.806;2023-04-28T00:08:40;100905.47;;;29.17;28.97
50852;BME280;43953;45.508;-122.806;2023-04-28T00:09:11;100904.31;;;29.18;29.09
50852;BME280;43953;45.508;-122.806;2023-04-28T00:09:43;100912.63;;;29.18;29.15
50852;BME280;43953;45.508;-122.806;2023-04-28T00:10:15;100902.69;;;29.17;29.20
50852;BME280;43953;45.508;-122.806;2023-04-28T00:10:47;100905.47;;;29.17;28.76
50852;BME280;43953;45.508;-122.806;2023-04-28T00:11:18;100905.47;;;29.17;29.16
50852;BME280;43953;45.508;-122.806;2023-04-28T00:11:51;100908.22;;;29.17;28.90
50852;BME280;43953;45.508;-122.806;2023-04-28T00:12:22;100908.22;;;29.17;29.14
50852;BME280;43953;45.508;-122.806;2023-04-28T00:12:54;100909.03;;;29.17;29.27
50852;BME280;43953;45.508;-122.806;2023-04-28T00:13:26;100902.69;;;29.17;28.95
50852;BME280;43953;45.508;-122.806;2023-04-28T00:13:58;100901.84;;;29.16;28.27
50852;BME280;43953;45.508;-122.806;2023-04-28T00:14:29;100906.94;;;29.14;27.95
50852;BME280;43953;45.508;-122.806;2023-04-28T00:15:01;100912.47;;;29.14;28.00
50852;BME280;43953;45.508;-122.806;2023-04-28T00:15:33;100907.25;;;29.13;28.18
50852;BME280;43953;45.508;-122.806;2023-04-28T00:16:06;100909.22;;;29.12;28.54
50852;BME280;43953;45.508;-122.806;2023-04-28T00:16:38;100910.00;;;29.13;28.47
50852;BME280;43953;45.508;-122.806;2023-04-28T00:17:09;100912.47;;;29.14;28.48
50852;BME280;43953;45.508;-122.806;2023-04-28T00:17:41;100910.50;;;29.15;28.36
50852;BME280;43953;45.508;-122.806;2023-04-28T00:18:13;100903.81;;;29.16;28.27
50852;BME280;43953;45.508;-122.806;2023-04-28T00:18:45;100901.03;;;29.16;28.26
50852;BME280;43953;45.508;-122.806;2023-04-28T00:19:16;100908.22;;;29.17;28.33
50852;BME280;43953;45.508;-122.806;2023-04-28T00:19:49;100897.13;;;29.17;28.12
50852;BME280;43953;45.508;-122.806;2023-04-28T00:20:20;100902.69;;;29.17;28.10
50852;BME280;43953;45.508;-122.806;2023-04-28T00:20:52;100900.72;;;29.17;27.95
50852;BME280;43953;45.508;-122.806;2023-04-28T00:21:25;100904.63;;;29.16;27.97
50852;BME280;43953;45.508;-122.806;2023-04-28T00:21:58;100899.91;;;29.17;28.06
50852;BME280;43953;45.508;-122.806;2023-04-28T00:22:31;100896.66;;;29.15;28.08
50852;BME280;43953;45.508;-122.806;2023-04-28T00:23:02;100894.69;;;29.15;28.13
50852;BME280;43953;45.508;-122.806;2023-04-28T00:23:34;100893.88;;;29.15;28.16
50852;BME280;43953;45.508;-122.806;2023-04-28T00:24:06;100897.81;;;29.14;28.33
50852;BME280;43953;45.508;-122.806;2023-04-28T00:24:38;100898.91;;;29.13;28.44
50852;BME280;43953;45.508;-122.806;2023-04-28T00:25:12;100892.25;;;29.14;28.67
50852;BME280;43953;45.508;-122.806;2023-04-28T00:25:43;100890.59;;;29.13;28.44
50852;BME280;43953;45.508;-122.806;2023-04-28T00:26:15;100900.09;;;29.12;28.42
50852;BME280;43953;45.508;-122.806;2023-04-28T00:26:47;100902.50;;;29.13;28.35
50852;BME280;43953;45.508;-122.806;2023-04-28T00:27:19;100894.53;;;29.12;28.39
50852;BME280;43953;45.508;-122.806;2023-04-28T00:27:50;100889.00;;;29.12;28.22
50852;BME280;43953;45.508;-122.806;2023-04-28T00:28:22;100889.00;;;29.12;28.29
50852;BME280;43953;45.508;-122.806;2023-04-28T00:28:54;100884.25;;;29.12;28.49
50852;BME280;43953;45.508;-122.806;2023-04-28T00:29:28;100890.59;;;29.13;28.31
50852;BME280;43953;45.508;-122.806;2023-04-28T00:30:00;100891.75;;;29.12;28.39
50852;BME280;43953;45.508;-122.806;2023-04-28T00:30:32;100885.72;;;29.10;28.42
50852;BME280;43953;45.508;-122.806;2023-04-28T00:31:10;100888.03;;;29.08;28.27
50852;BME280;43953;45.508;-122.806;2023-04-28T00:31:45;100890.81;;;29.08;27.92
50852;BME280;43953;45.508;-122.806;2023-04-28T00:32:17;100884.09;;;29.09;28.31
50852;BME280;43953;45.508;-122.806;2023-04-28T00:32:49;100881.66;;;29.07;27.97
50852;BME280;43953;45.508;-122.806;2023-04-28T00:33:21;100878.88;;;29.07;27.95
50852;BME280;43953;45.508;-122.806;2023-04-28T00:33:52;100878.88;;;29.07;27.86
50852;BME280;43953;45.508;-122.806;2023-04-28T00:34:24;100880.84;;;29.07;28.31
50852;BME280;43953;45.508;-122.806;2023-04-28T00:34:56;100889.50;;;29.05;28.13
50852;BME280;43953;45.508;-122.806;2023-04-28T00:35:28;100878.72;;;29.03;28.30
50852;BME280;43953;45.508;-122.806;2023-04-28T00:36:00;100881.50;;;29.03;28.51
50852;BME280;43953;45.508;-122.806;2023-04-28T00:36:32;100877.91;;;29.03;28.31
50852;BME280;43953;45.508;-122.806;2023-04-28T00:37:03;100875.97;;;29.03;28.50
50852;BME280;43953;45.508;-122.806;2023-04-28T00:37:36;100880.69;;;29.03;28.41
50852;BME280;43953;45.508;-122.806;2023-04-28T00:38:08;100872.66;;;29.01;28.40
50852;BME280;43953;45.508;-122.806;2023-04-28T00:38:40;100876.59;;;29.00;28.34
50852;BME280;43953;45.508;-122.806;2023-04-28T00:39:12;100873.31;;;28.98;28.48
50852;BME280;43953;45.508;-122.806;2023-04-28T00:39:44;100876.09;;;28.98;28.39
50852;BME280;43953;45.508;-122.806;2023-04-28T00:40:19;100867.78;;;28.98;28.63
50852;BME280;43953;45.508;-122.806;2023-04-28T00:40:51;100868.94;;;28.97;28.40
50852;BME280;43953;45.508;-122.806;2023-04-28T00:41:23;100870.09;;;28.96;28.53
50852;BME280;43953;45.508;-122.806;2023-04-28T00:41:54;100868.78;;;28.94;28.36
50852;BME280;43953;45.508;-122.806;2023-04-28T00:42:26;100875.13;;;28.94;28.55
50852;BME280;43953;45.508;-122.806;2023-04-28T00:42:58;100874.63;;;28.92;28.69
50852;BME280;43953;45.508;-122.806;2023-04-28T00:43:30;100875.31;;;28.89;28.50
50852;BME280;43953;45.508;-122.806;2023-04-28T00:44:02;100871.56;;;28.85;28.55
50852;BME280;43953;45.508;-122.806;2023-04-28T00:44:34;100870.25;;;28.83;28.47
50852;BME280;43953;45.508;-122.806;2023-04-28T00:45:06;100864.56;;;28.79;28.50
50852;BME280;43953;45.508;-122.806;2023-04-28T00:45:38;100876.31;;;28.76;28.63
50852;BME280;43953;45.508;-122.806;2023-04-28T00:46:12;100874.19;;;28.73;28.68
50852;BME280;43953;45.508;-122.806;2023-04-28T00:46:48;100874.50;;;28.71;28.98
50852;BME280;43953;45.508;-122.806;2023-04-28T00:47:20;100872.09;;;28.70;29.11
50852;BME280;43953;45.508;-122.806;2023-04-28T00:47:53;100870.44;;;28.69;29.46
50852;BME280;43953;45.508;-122.806;2023-04-28T00:48:25;100870.44;;;28.69;29.21
50852;BME280;43953;45.508;-122.806;2023-04-28T00:48:58;100868.81;;;28.68;28.97
50852;BME280;43953;45.508;-122.806;2023-04-28T00:49:30;100869.63;;;28.68;29.18
50852;BME280;43953;45.508;-122.806;2023-04-28T00:50:03;100873.56;;;28.67;29.27
50852;BME280;43953;45.508;-122.806;2023-04-28T00:50:37;100871.59;;;28.68;29.35
50852;BME280;43953;45.508;-122.806;2023-04-28T00:51:10;100861.66;;;28.67;29.33
50852;BME280;43953;45.508;-122.806;2023-04-28T00:51:41;100867.19;;;28.67;29.20
50852;BME280;43953;45.508;-122.806;2023-04-28T00:52:13;100869.47;;;28.65;29.33
50852;BME280;43953;45.508;-122.806;2023-04-28T00:52:46;100868.97;;;28.63;29.53
50852;BME280;43953;45.508;-122.806;2023-04-28T00:53:18;100859.03;;;28.62;29.33
50852;BME280;43953;45.508;-122.806;2023-04-28T00:53:50;100865.25;;;28.58;29.09
50852;BME280;43953;45.508;-122.806;2023-04-28T00:54:22;100873.06;;;28.56;29.36
50852;BME280;43953;45.508;-122.806;2023-04-28T00:54:54;100874.22;;;28.55;29.36
50852;BME280;43953;45.508;-122.806;2023-04-28T00:55:27;100868.16;;;28.53;29.46
50852;BME280;43953;45.508;-122.806;2023-04-28T00:56:02;100870.44;;;28.51;29.28
50852;BME280;43953;45.508;-122.806;2023-04-28T00:56:35;100869.97;;;28.49;29.34
50852;BME280;43953;45.508;-122.806;2023-04-28T00:57:07;100867.53;;;28.48;29.40
50852;BME280;43953;45.508;-122.806;2023-04-28T00:57:40;100869.31;;;28.44;29.72
50852;BME280;43953;45.508;-122.806;2023-04-28T00:58:12;100869.31;;;28.44;29.61
50852;BME280;43953;45.508;-122.806;2023-04-28T00:58:44;100862.97;;;28.43;30.10
50852;BME280;43953;45.508;-122.806;2023-04-28T00:59:16;100863.59;;;28.40;29.85
50852;BME280;43953;45.508;-122.806;2023-04-28T00:59:47;100869.13;;;28.40;29.79
50852;BME280;43953;45.508;-122.806;2023-04-28T01:00:19;100861.13;;;28.39;29.88
50852;BME280;43953;45.508;-122.806;2023-04-28T01:00:51;100867.47;;;28.39;29.87
50852;BME280;43953;45.508;-122.806;2023-04-28T01:01:23;100875.47;;;28.41;29.68
50852;BME280;43953;45.508;-122.806;2023-04-28T01:01:55;100867.19;;;28.41;30.02
50852;BME280;43953;45.508;-122.806;2023-04-28T01:02:27;100868.00;;;28.41;29.99
50852;BME280;43953;45.508;-122.806;2023-04-28T01:03:00;100868.00;;;28.41;29.88
50852;BME280;43953;45.508;-122.806;2023-04-28T01:03:36;100863.59;;;28.40;29.89
50852;BME280;43953;45.508;-122.806;2023-04-28T01:04:09;100865.25;;;28.41;29.97
50852;BME280;43953;45.508;-122.806;2023-04-28T01:04:40;100856.41;;;28.39;29.98
50852;BME280;43953;45.508;-122.806;2023-04-28T01:05:12;100864.72;;;28.39;29.87
50852;BME280;43953;45.508;-122.806;2023-04-28T01:05:45;100867.03;;;28.37;30.05
50852;BME280;43953;45.508;-122.806;2023-04-28T01:06:17;100866.19;;;28.36;30.06
50852;BME280;43953;45.508;-122.806;2023-04-28T01:06:50;100864.91;;;28.34;30.19
50852;BME280;43953;45.508;-122.806;2023-04-28T01:07:23;100866.03;;;28.33;30.20
50852;BME280;43953;45.508;-122.806;2023-04-28T01:07:55;100867.16;;;28.32;30.38
50852;BME280;43953;45.508;-122.806;2023-04-28T01:08:30;100863.44;;;28.28;30.52
50852;BME280;43953;45.508;-122.806;2023-04-28T01:09:02;100865.38;;;28.27;30.38
50852;BME280;43953;45.508;-122.806;2023-04-28T01:09:33;100863.75;;;28.26;30.37
50852;BME280;43953;45.508;-122.806;2023-04-28T01:10:05;100862.78;;;28.22;30.30
50852;BME280;43953;45.508;-122.806;2023-04-28T01:10:43;100864.25;;;28.20;30.18
50852;BME280;43953;45.508;-122.806;2023-04-28T01:11:15;100857.38;;;28.17;30.25
50852;BME280;43953;45.508;-122.806;2023-04-28T01:11:47;100870.41;;;28.17;30.19
50852;BME280;43953;45.508;-122.806;2023-04-28T01:12:19;100858.53;;;28.16;30.71
50852;BME280;43953;45.508;-122.806;2023-04-28T01:12:51;100864.72;;;28.13;30.56
50852;BME280;43953;45.508;-122.806;2023-04-28T01:13:22;100859.19;;;28.13;30.62
50852;BME280;43953;45.508;-122.806;2023-04-28T01:13:54;100866.66;;;28.12;30.68
50852;BME280;43953;45.508;-122.806;2023-04-28T01:14:27;100864.22;;;28.11;30.61
50852;BME280;43953;45.508;-122.806;2023-04-28T01:14:59;100859.81;;;28.10;30.67
50852;BME280;43953;45.508;-122.806;2023-04-28T01:15:31;100859.00;;;28.09;30.71
50852;BME280;43953;45.508;-122.806;2023-04-28T01:16:03;100858.53;;;28.07;30.77
50852;BME280;43953;45.508;-122.806;2023-04-28T01:16:37;100860.78;;;28.05;30.93
50852;BME280;43953;45.508;-122.806;2023-04-28T01:17:09;100855.25;;;28.05;30.98
50852;BME280;43953;45.508;-122.806;2023-04-28T01:17:41;100853.63;;;28.04;30.65
50852;BME280;43953;45.508;-122.806;2023-04-28T01:18:13;100865.81;;;28.03;31.04
50852;BME280;43953;45.508;-122.806;2023-04-28T01:18:47;100861.44;;;28.02;31.20
50852;BME280;43953;45.508;-122.806;2023-04-28T01:19:22;100858.97;;;28.01;30.94
50852;BME280;43953;45.508;-122.806;2023-04-28T01:19:54;100854.28;;;28.01;31.07
50852;BME280;43953;45.508;-122.806;2023-04-28T01:20:26;100860.28;;;28.03;31.10
50852;BME280;43953;45.508;-122.806;2023-04-28T01:20:57;100855.09;;;28.02;31.03
50852;BME280;43953;45.508;-122.806;2023-04-28T01:21:33;100852.31;;;28.02;31.34
50852;BME280;43953;45.508;-122.806;2023-04-28T01:22:04;100853.94;;;28.03;31.01
50852;BME280;43953;45.508;-122.806;2023-04-28T01:22:36;100855.41;;;28.00;31.02
50852;BME280;43953;45.508;-122.806;2023-04-28T01:23:12;100851.31;;;27.98;31.03
50852;BME280;43953;45.508;-122.806;2023-04-28T01:23:45;100845.78;;;27.98;31.24
50852;BME280;43953;45.508;-122.806;2023-04-28T01:24:17;100852.47;;;27.97;30.93
50852;BME280;43953;45.508;-122.806;2023-04-28T01:24:49;100854.44;;;27.96;31.23
50852;BME280;43953;45.508;-122.806;2023-04-28T01:25:21;100851.16;;;27.94;31.19
50852;BME280;43953;45.508;-122.806;2023-04-28T01:25:52;100847.91;;;27.92;31.32
50852;BME280;43953;45.508;-122.806;2023-04-28T01:26:24;100849.03;;;27.91;31.04
50852;BME280;43953;45.508;-122.806;2023-04-28T01:26:56;100845.47;;;27.90;31.38
50852;BME280;43953;45.508;-122.806;2023-04-28T01:27:28;100843.50;;;27.91;31.10
50852;BME280;43953;45.508;-122.806;2023-04-28T01:28:00;100842.69;;;27.90;31.57
50852;BME280;43953;45.508;-122.806;2023-04-28T01:28:31;100848.53;;;27.89;31.40
50852;BME280;43953;45.508;-122.806;2023-04-28T01:29:03;100855.22;;;27.88;31.30
50852;BME280;43953;45.508;-122.806;2023-04-28T01:29:35;100847.56;;;27.85;31.25
50852;BME280;43953;45.508;-122.806;2023-04-28T01:30:07;100854.41;;;27.87;31.28
50852;BME280;43953;45.508;-122.806;2023-04-28T01:30:39;100849.19;;;27.86;31.50
50852;BME280;43953;45.508;-122.806;2023-04-28T01:31:11;100842.84;;;27.85;31.22
50852;BME280;43953;45.508;-122.806;2023-04-28T01:31:43;100851.47;;;27.84;31.37
50852;BME280;43953;45.508;-122.806;2023-04-28T01:32:14;100848.72;;;27.84;31.30
50852;BME280;43953;45.508;-122.806;2023-04-28T01:32:46;100845.44;;;27.82;31.38
50852;BME280;43953;45.508;-122.806;2023-04-28T01:33:18;100844.94;;;27.80;31.42
50852;BME280;43953;45.508;-122.806;2023-04-28T01:33:49;100846.59;;;27.81;31.38
50852;BME280;43953;45.508;-122.806;2023-04-28T01:34:21;100841.06;;;27.81;31.53
50852;BME280;43953;45.508;-122.806;2023-04-28T01:34:53;100843.81;;;27.81;31.42
50852;BME280;43953;45.508;-122.806;2023-04-28T01:35:25;100842.19;;;27.80;31.39
50852;BME280;43953;45.508;-122.806;2023-04-28T01:35:57;100843.31;;;27.79;31.57
50852;BME280;43953;45.508;-122.806;2023-04-28T01:36:29;100836.97;;;27.78;31.26
50852;BME280;43953;45.508;-122.806;2023-04-28T01:37:01;100846.72;;;27.76;31.31
50852;BME280;43953;45.508;-122.806;2023-04-28T01:37:32;100839.88;;;27.73;31.60
50852;BME280;43953;45.508;-122.806;2023-04-28T01:38:04;100837.44;;;27.72;31.46
50852;BME280;43953;45.508;-122.806;2023-04-28T01:38:36;100842.97;;;27.72;31.48
50852;BME280;43953;45.508;-122.806;2023-04-28T01:39:08;100836.13;;;27.69;31.69
50852;BME280;43953;45.508;-122.806;2023-04-28T01:39:39;100838.88;;;27.69;31.54
50852;BME280;43953;45.508;-122.806;2023-04-28T01:40:12;100843.56;;;27.68;31.76
50852;BME280;43953;45.508;-122.806;2023-04-28T01:40:43;100837.22;;;27.68;31.72
50852;BME280;43953;45.508;-122.806;2023-04-28T01:41:15;100832.03;;;27.66;31.73
50852;BME280;43953;45.508;-122.806;2023-04-28T01:41:47;100840.34;;;27.66;31.39
50852;BME280;43953;45.508;-122.806;2023-04-28T01:42:19;100837.06;;;27.64;31.66
50852;BME280;43953;45.508;-122.806;2023-04-28T01:42:50;100840.47;;;27.61;31.83
50852;BME280;43953;45.508;-122.806;2023-04-28T01:43:22;100834.44;;;27.59;31.80
50852;BME280;43953;45.508;-122.806;2023-04-28T01:43:54;100837.53;;;27.58;32.03
50852;BME280;43953;45.508;-122.806;2023-04-28T01:44:26;100835.09;;;27.56;31.83
50852;BME280;43953;45.508;-122.806;2023-04-28T01:44:57;100836.53;;;27.54;31.95
50852;BME280;43953;45.508;-122.806;2023-04-28T01:45:29;100836.06;;;27.52;31.88
50852;BME280;43953;45.508;-122.806;2023-04-28T01:46:01;100836.38;;;27.50;32.18
50852;BME280;43953;45.508;-122.806;2023-04-28T01:46:33;100826.75;;;27.48;32.18
50852;BME280;43953;45.508;-122.806;2023-04-28T01:47:05;100837.00;;;27.47;32.07
50852;BME280;43953;45.508;-122.806;2023-04-28T01:47:37;100836.53;;;27.45;32.26
50852;BME280;43953;45.508;-122.806;2023-04-28T01:48:09;100835.22;;;27.42;32.22
50852;BME280;43953;45.508;-122.806;2023-04-28T01:48:41;100834.41;;;27.42;32.21
50852;BME280;43953;45.508;-122.806;2023-04-28T01:49:13;100834.41;;;27.42;32.37
50852;BME280;43953;45.508;-122.806;2023-04-28T01:49:44;100832.75;;;27.41;32.33
50852;BME280;43953;45.508;-122.806;2023-04-28T01:50:18;100833.91;;;27.40;32.36
50852;BME280;43953;45.508;-122.806;2023-04-28T01:50:50;100829.50;;;27.39;32.42
50852;BME280;43953;45.508;-122.806;2023-04-28T01:51:21;100832.25;;;27.39;32.67
50852;BME280;43953;45.508;-122.806;2023-04-28T01:51:53;100843.31;;;27.39;32.45
50852;BME280;43953;45.508;-122.806;2023-04-28T01:52:25;100837.78;;;27.39;32.58
50852;BME280;43953;45.508;-122.806;2023-04-28T01:52:58;100841.69;;;27.38;32.46
50852;BME280;43953;45.508;-122.806;2023-04-28T01:53:29;100831.78;;;27.37;32.53
50852;BME280;43953;45.508;-122.806;2023-04-28T01:54:01;100841.19;;;27.36;32.66
50852;BME280;43953;45.508;-122.806;2023-04-28T01:54:33;100835.66;;;27.36;32.62
50852;BME280;43953;45.508;-122.806;2023-04-28T01:55:05;100834.84;;;27.35;32.56
50852;BME280;43953;45.508;-122.806;2023-04-28T01:55:37;100833.22;;;27.34;32.63
50852;BME280;43953;45.508;-122.806;2023-04-28T01:56:09;100833.53;;;27.33;32.28
50852;BME280;43953;45.508;-122.806;2023-04-28T01:56:41;100833.53;;;27.33;32.86
50852;BME280;43953;45.508;-122.806;2023-04-28T01:57:12;100829.16;;;27.32;32.61
50852;BME280;43953;45.508;-122.806;2023-04-28T01:57:44;100829.16;;;27.32;32.70
50852;BME280;43953;45.508;-122.806;2023-04-28T01:58:16;100827.53;;;27.31;32.42
50852;BME280;43953;45.508;-122.806;2023-04-28T01:58:48;100834.69;;;27.32;32.66
50852;BME280;43953;45.508;-122.806;2023-04-28T01:59:19;100831.41;;;27.30;32.75
50852;BME280;43953;45.508;-122.806;2023-04-28T01:59:51;100832.56;;;27.29;32.83
50852;BME280;43953;45.508;-122.806;2023-04-28T02:00:23;100833.69;;;27.28;32.80
50852;BME280;43953;45.508;-122.806;2023-04-28T02:00:55;100834.81;;;27.27;32.52
50852;BME280;43953;45.508;-122.806;2023-04-28T02:01:27;100830.44;;;27.26;32.75
50852;BME280;43953;45.508;-122.806;2023-04-28T02:01:59;100831.56;;;27.25;32.60
50852;BME280;43953;45.508;-122.806;2023-04-28T02:02:30;100832.69;;;27.23;32.50
50852;BME280;43953;45.508;-122.806;2023-04-28T02:03:02;100826.69;;;27.21;32.55
50852;BME280;43953;45.508;-122.806;2023-04-28T02:03:34;100833.31;;;27.20;32.67
50852;BME280;43953;45.508;-122.806;2023-04-28T02:04:06;100834.13;;;27.21;32.94
50852;BME280;43953;45.508;-122.806;2023-04-28T02:04:38;100831.69;;;27.19;32.78
50852;BME280;43953;45.508;-122.806;2023-04-28T02:05:10;100835.63;;;27.18;32.86
50852;BME280;43953;45.508;-122.806;2023-04-28T02:05:42;100828.13;;;27.19;32.94
50852;BME280;43953;45.508;-122.806;2023-04-28T02:06:14;100821.78;;;27.18;32.88
50852;BME280;43953;45.508;-122.806;2023-04-28T02:06:45;100830.09;;;27.18;32.88
50852;BME280;43953;45.508;-122.806;2023-04-28T02:07:17;100829.56;;;27.16;32.75
50852;BME280;43953;45.508;-122.806;2023-04-28T02:07:49;100830.72;;;27.15;33.09
50852;BME280;43953;45.508;-122.806;2023-04-28T02:08:21;100824.66;;;27.13;32.81
50852;BME280;43953;45.508;-122.806;2023-04-28T02:08:52;100826.59;;;27.13;32.86
50852;BME280;43953;45.508;-122.806;2023-04-28T02:09:24;100830.47;;;27.12;32.66
50852;BME280;43953;45.508;-122.806;2023-04-28T02:09:56;100831.28;;;27.12;32.88
50852;BME280;43953;45.508;-122.806;2023-04-28T02:10:28;100822.53;;;27.10;33.06
50852;BME280;43953;45.508;-122.806;2023-04-28T02:11:00;100822.84;;;27.09;33.20
50852;BME280;43953;45.508;-122.806;2023-04-28T02:11:31;100824.78;;;27.08;33.09
50852;BME280;43953;45.508;-122.806;2023-04-28T02:12:03;100823.16;;;27.07;33.07
50852;BME280;43953;45.508;-122.806;2023-04-28T02:12:35;100820.69;;;27.06;33.10
50852;BME280;43953;45.508;-122.806;2023-04-28T02:13:07;100821.84;;;27.05;32.78
50852;BME280;43953;45.508;-122.806;2023-04-28T02:13:39;100826.56;;;27.04;32.89
50852;BME280;43953;45.508;-122.806;2023-04-28T02:14:10;100816.63;;;27.03;32.94
50852;BME280;43953;45.508;-122.806;2023-04-28T02:14:42;100824.44;;;27.01;33.11
50852;BME280;43953;45.508;-122.806;2023-04-28T02:15:14;100817.59;;;26.98;32.91
50852;BME280;43953;45.508;-122.806;2023-04-28T02:15:47;100819.53;;;26.98;32.85
50852;BME280;43953;45.508;-122.806;2023-04-28T02:16:18;100822.31;;;26.98;33.03
50852;BME280;43953;45.508;-122.806;2023-04-28T02:16:50;100819.84;;;26.96;33.17
50852;BME280;43953;45.508;-122.806;2023-04-28T02:17:22;100825.38;;;26.96;33.27
50852;BME280;43953;45.508;-122.806;2023-04-28T02:17:53;100827.31;;;26.96;33.37
50852;BME280;43953;45.508;-122.806;2023-04-28T02:18:25;100821.28;;;26.94;33.53
50852;BME280;43953;45.508;-122.806;2023-04-28T02:18:57;100818.88;;;26.92;33.50
50852;BME280;43953;45.508;-122.806;2023-04-28T02:19:29;100818.06;;;26.92;33.51
50852;BME280;43953;45.508;-122.806;2023-04-28T02:20:01;100821.94;;;26.91;33.75
50852;BME280;43953;45.508;-122.806;2023-04-28T02:20:32;100823.06;;;26.90;33.54
50852;BME280;43953;45.508;-122.806;2023-04-28T02:21:08;100835.56;;;26.87;33.91
50852;BME280;43953;45.508;-122.806;2023-04-28T02:21:42;100830.03;;;26.87;33.93
50852;BME280;43953;45.508;-122.806;2023-04-28T02:22:14;100825.94;;;26.85;33.98
50852;BME280;43953;45.508;-122.806;2023-04-28T02:22:46;100830.97;;;26.83;33.95
50852;BME280;43953;45.508;-122.806;2023-04-28T02:23:17;100833.72;;;26.83;34.04
50852;BME280;43953;45.508;-122.806;2023-04-28T02:23:49;100826.59;;;26.82;34.16
50852;BME280;43953;45.508;-122.806;2023-04-28T02:24:21;100829.69;;;26.80;33.77
50852;BME280;43953;45.508;-122.806;2023-04-28T02:24:53;100827.22;;;26.78;33.64
50852;BME280;43953;45.508;-122.806;2023-04-28T02:25:25;100819.56;;;26.75;33.78
50852;BME280;43953;45.508;-122.806;2023-04-28T02:26:00;100825.41;;;26.74;33.92
50852;BME280;43953;45.508;-122.806;2023-04-28T02:26:32;100829.28;;;26.73;33.80
50852;BME280;43953;45.508;-122.806;2023-04-28T02:27:04;100824.09;;;26.71;33.99
50852;BME280;43953;45.508;-122.806;2023-04-28T02:27:36;100831.53;;;26.71;33.93
50852;BME280;43953;45.508;-122.806;2023-04-28T02:28:08;100830.25;;;26.68;34.19
50852;BME280;43953;45.508;-122.806;2023-04-28T02:28:40;100826.16;;;26.66;34.07
50852;BME280;43953;45.508;-122.806;2023-04-28T02:29:11;100822.59;;;26.65;34.32
50852;BME280;43953;45.508;-122.806;2023-04-28T02:29:43;100822.09;;;26.63;34.25
50852;BME280;43953;45.508;-122.806;2023-04-28T02:30:15;100827.91;;;26.62;34.13
50852;BME280;43953;45.508;-122.806;2023-04-28T02:30:47;100825.47;;;26.60;34.66
50852;BME280;43953;45.508;-122.806;2023-04-28T02:31:20;100834.91;;;26.59;34.77
50852;BME280;43953;45.508;-122.806;2023-04-28T02:31:52;100823.84;;;26.59;35.01
50852;BME280;43953;45.508;-122.806;2023-04-28T02:32:24;100823.03;;;26.59;35.30
50852;BME280;43953;45.508;-122.806;2023-04-28T02:32:55;100822.53;;;26.57;35.31
50852;BME280;43953;45.508;-122.806;2023-04-28T02:33:27;100823.66;;;26.55;34.91
50852;BME280;43953;45.508;-122.806;2023-04-28T02:33:59;100826.72;;;26.54;35.11
50852;BME280;43953;45.508;-122.806;2023-04-28T02:34:31;100817.94;;;26.52;35.43
50852;BME280;43953;45.508;-122.806;2023-04-28T02:35:03;100831.53;;;26.48;35.38
50852;BME280;43953;45.508;-122.806;2023-04-28T02:35:35;100833.47;;;26.48;35.77
50852;BME280;43953;45.508;-122.806;2023-04-28T02:36:07;100824.69;;;26.46;35.49
50852;BME280;43953;45.508;-122.806;2023-04-28T02:36:39;100820.31;;;26.45;35.38
50852;BME280;43953;45.508;-122.806;2023-04-28T02:37:10;100824.19;;;26.44;35.29
50852;BME280;43953;45.508;-122.806;2023-04-28T02:37:42;100815.91;;;26.44;35.16
50852;BME280;43953;45.508;-122.806;2023-04-28T02:38:14;100823.69;;;26.42;35.46
50852;BME280;43953;45.508;-122.806;2023-04-28T02:38:46;100826.75;;;26.40;35.53
50852;BME280;43953;45.508;-122.806;2023-04-28T02:39:17;100827.88;;;26.39;35.79
50852;BME280;43953;45.508;-122.806;2023-04-28T02:39:52;100822.66;;;26.38;35.84
50852;BME280;43953;45.508;-122.806;2023-04-28T02:40:23;100825.75;;;26.36;35.89
50852;BME280;43953;45.508;-122.806;2023-04-28T02:40:58;100825.25;;;26.34;36.02
50852;BME280;43953;45.508;-122.806;2023-04-28T02:41:31;100821.16;;;26.31;35.53